sensor_id;sensor_type;location;lat;lon;timestamp;temperature;humidity
8780;DHT22;62328;51.19929245;4.42130175;2023-06-10T00:00:19;23.00;99.90
8780;DHT22;62328;51.19929245;4.42130175;2023-06-10T00:02:46;22.90;99.90
8780;DHT22;62328;51.19929245;4.42130175;2023-06-10T00:05:13;22.90;99.90
8780;DHT22;62328;51.19929245;4.42130175;2023-06-10T00:07:42;22.90;99.90
8780;DHT22;62328;51.19929245;4.42130175;2023-06-10T00:10:09;22.90;99.90
8780;DHT22;62328;51.19929245;4.42130175;2023-06-10T00:12:38;22.80;99.90
8780;DHT22;62328;51.19929245;4.42130175;2023-06-10T00:15:07;22.80;99.90
8780;DHT22;62328;51.19929245;4.42130175;2023-06-10T00:17:34;22.80;99.90
8780;DHT22;62328;51.19929245;4.42130175;2023-06-10T00:20:06;22.80;99.90
8780;DHT22;62328;51.19929245;4.42130175;2023-06-10T00:22:36;22.70;99.90
8780;DHT22;62328;51.19929245;4.42130175;2023-06-10T00:25:04;22.70;99.90
8780;DHT22;62328;51.19929245;4.42130175;2023-06-10T00:27:31;22.70;99.90
8780;DHT22;62328;51.19929245;4.42130175;2023-06-10T00:30:02;22.70;99.90
8780;DHT22;62328;51.19929245;4.42130175;2023-06-10T00:32:33;22.70;99.90
8780;DHT22;62328;51.19929245;4.42130175;2023-06-10T00:35:01;22.70;99.90
8780;DHT22;62328;51.19929245;4.42130175;2023-06-10T00:37:28;22.60;99.90
8780;DHT22;62328;51.19929245;4.42130175;2023-06-10T00:39:55;22.60;99.90
8780;DHT22;62328;51.19929245;4.42130175;2023-06-10T00:42:23;22.60;99.90
8780;DHT22;62328;51.19929245;4.42130175;2023-06-10T00:44:50;22.60;99.90
8780;DHT22;62328;51.19929245;4.42130175;2023-06-10T00:47:19;22.60;99.90
8780;DHT22;62328;51.19929245;4.42130175;2023-06-10T00:49:47;22.60;99.90
8780;DHT22;62328;51.19929245;4.42130175;2023-06-10T00:52:15;22.60;99.90
8780;DHT22;62328;51.19929245;4.42130175;2023-06-10T00:54:43;22.60;99.90
8780;DHT22;62328;51.19929245;4.42130175;2023-06-10T00:57:12;22.60;99.90
8780;DHT22;62328;51.19929245;4.42130175;2023-06-10T00:59:39;22.60;99.90
8780;DHT22;62328;51.19929245;4.42130175;2023-06-10T01:02:07;22.50;99.90
8780;DHT22;62328;51.19929245;4.42130175;2023-06-10T01:04:36;22.50;99.90
8780;DHT22;62328;51.19929245;4.42130175;2023-06-10T01:07:10;22.50;99.90
8780;DHT22;62328;51.19929245;4.42130175;2023-06-10T01:09:46;22.50;99.90
8780;DHT22;62328;51.19929245;4.42130175;2023-06-10T01:12:20;22.50;99.90
8780;DHT22;62328;51.19929245;4.42130175;2023-06-10T01:14:51;22.50;99.90
8780;DHT22;62328;51.19929245;4.42130175;2023-06-10T01:17:18;22.40;99.90
8780;DHT22;62328;51.19929245;4.42130175;2023-06-10T01:19:54;22.40;99.90
8780;DHT22;62328;51.19929245;4.42130175;2023-06-10T01:22:24;22.40;99.90
8780;DHT22;62328;51.19929245;4.42130175;2023-06-10T01:24:54;22.40;99.90
8780;DHT22;62328;51.19929245;4.42130175;2023-06-10T01:27:26;22.40;99.90
8780;DHT22;62328;51.19929245;4.42130175;2023-06-10T01:29:59;22.30;99.90
8780;DHT22;62328;51.19929245;4.42130175;2023-06-10T01:32:34;22.30;99.90
8780;DHT22;62328;51.19929245;4.42130175;2023-06-10T01:35:05;22.30;99.90
8780;DHT22;62328;51.19929245;4.42130175;2023-06-10T01:37:39;22.20;99.90
8780;DHT22;62328;51.19929245;4.42130175;2023-06-10T01:40:07;22.20;99.90
8780;DHT22;62328;51.19929245;4.42130175;2023-06-10T01:42:35;22.20;99.90
8780;DHT22;62328;51.19929245;4.42130175;2023-06-10T01:45:02;22.20;99.90
8780;DHT22;62328;51.19929245;4.42130175;2023-06-10T01:47:29;22.20;99.90
8780;DHT22;62328;51.19929245;4.42130175;2023-06-10T01:49:57;22.20;99.90
8780;DHT22;62328;51.19929245;4.42130175;2023-06-10T01:52:24;22.20;99.90
8780;DHT22;62328;51.19929245;4.42130175;2023-06-10T01:54:53;22.10;99.90
8780;DHT22;62328;51.19929245;4.42130175;2023-06-10T01:57:19;22.10;99.90
8780;DHT22;62328;51.19929245;4.42130175;2023-06-10T01:59:46;22.10;99.90
8780;DHT22;62328;51.19929245;4.42130175;2023-06-10T02:02:13;22.10;99.90
8780;DHT22;62328;51.19929245;4.42130175;2023-06-10T02:04:40;22.10;99.90
8780;DHT22;62328;51.19929245;4.42130175;2023-06-10T02:07:07;22.00;99.90
8780;DHT22;62328;51.19929245;4.42130175;2023-06-10T02:09:34;22.00;99.90
8780;DHT22;62328;51.19929245;4.42130175;2023-06-10T02:12:04;22.00;99.90
8780;DHT22;62328;51.19929245;4.42130175;2023-06-10T02:14:32;22.00;99.90
8780;DHT22;62328;51.19929245;4.42130175;2023-06-10T02:17:00;22.00;99.90
8780;DHT22;62328;51.19929245;4.42130175;2023-06-10T02:19:27;21.90;99.90
8780;DHT22;62328;51.19929245;4.42130175;2023-06-10T02:21:54;21.90;99.90
8780;DHT22;62328;51.19929245;4.42130175;2023-06-10T02:24:21;21.90;99.90
8780;DHT22;62328;51.19929245;4.42130175;2023-06-10T02:26:47;21.90;99.90
8780;DHT22;62328;51.19929245;4.42130175;2023-06-10T02:29:18;21.80;99.90
8780;DHT22;62328;51.19929245;4.42130175;2023-06-10T02:31:45;21.80;99.90
8780;DHT22;62328;51.19929245;4.42130175;2023-06-10T02:34:13;21.80;99.90
8780;DHT22;62328;51.19929245;4.42130175;2023-06-10T02:36:41;21.80;99.90
8780;DHT22;62328;51.19929245;4.42130175;2023-06-10T02:39:07;21.80;99.90
8780;DHT22;62328;51.19929245;4.42130175;2023-06-10T02:41:35;21.80;99.90
8780;DHT22;62328;51.19929245;4.42130175;2023-06-10T02:44:01;21.80;99.90
8780;DHT22;62328;51.19929245;4.42130175;2023-06-10T02:46:30;21.70;99.90
8780;DHT22;62328;51.19929245;4.42130175;2023-06-10T02:48:57;21.70;99.90
8780;DHT22;62328;51.19929245;4.42130175;2023-06-10T02:51:24;21.70;99.90
8780;DHT22;62328;51.19929245;4.42130175;2023-06-10T02:53:51;21.70;99.90
8780;DHT22;62328;51.19929245;4.42130175;2023-06-10T02:56:18;21.70;99.90
8780;DHT22;62328;51.19929245;4.42130175;2023-06-10T02:58:45;21.70;99.90
8780;DHT22;62328;51.19929245;4.42130175;2023-06-10T03:01:14;21.60;99.90
8780;DHT22;62328;51.19929245;4.42130175;2023-06-10T03:03:43;21.60;99.90
8780;DHT22;62328;51.19929245;4.42130175;2023-06-10T03:06:10;21.60;99.90
8780;DHT22;62328;51.19929245;4.42130175;2023-06-10T03:08:38;21.60;99.90
8780;DHT22;62328;51.19929245;4.42130175;2023-06-10T03:11:05;21.60;99.90
8780;DHT22;62328;51.19929245;4.42130175;2023-06-10T03:13:32;21.50;99.90
8780;DHT22;62328;51.19929245;4.42130175;2023-06-10T03:15:59;21.50;99.90
8780;DHT22;62328;51.19929245;4.42130175;2023-06-10T03:18:27;21.50;99.90
8780;DHT22;62328;51.19929245;4.42130175;2023-06-10T03:20:56;21.50;99.90
8780;DHT22;62328;51.19929245;4.42130175;2023-06-10T03:23:23;21.50;99.90
8780;DHT22;62328;51.19929245;4.42130175;2023-06-10T03:25:50;21.50;99.90
8780;DHT22;62328;51.19929245;4.42130175;2023-06-10T03:28:17;21.50;99.90
8780;DHT22;62328;51.19929245;4.42130175;2023-06-10T03:30:44;21.40;99.90
8780;DHT22;62328;51.19929245;4.42130175;2023-06-10T03:33:11;21.40;99.90
8780;DHT22;62328;51.19929245;4.42130175;2023-06-10T03:35:38;21.40;99.90
8780;DHT22;62328;51.19929245;4.42130175;2023-06-10T03:38:06;21.40;99.90
8780;DHT22;62328;51.19929245;4.42130175;2023-06-10T03:40:33;21.30;99.90
8780;DHT22;62328;51.19929245;4.42130175;2023-06-10T03:43:01;21.40;99.90
8780;DHT22;62328;51.19929245;4.42130175;2023-06-10T03:45:28;21.30;99.90
8780;DHT22;62328;51.19929245;4.42130175;2023-06-10T03:47:54;21.40;99.90
8780;DHT22;62328;51.19929245;4.42130175;2023-06-10T03:50:23;21.40;99.90
8780;DHT22;62328;51.19929245;4.42130175;2023-06-10T03:52:50;21.30;99.90
8780;DHT22;62328;51.19929245;4.42130175;2023-06-10T03:55:19;21.30;99.90
8780;DHT22;62328;51.19929245;4.42130175;2023-06-10T03:57:47;21.30;99.90
8780;DHT22;62328;51.19929245;4.42130175;2023-06-10T04:00:15;21.30;99.90
8780;DHT22;62328;51.19929245;4.42130175;2023-06-10T04:02:43;21.30;99.90
8780;DHT22;62328;51.19929245;4.42130175;2023-06-10T04:05:13;21.30;99.90
8780;DHT22;62328;51.19929245;4.42130175;2023-06-10T04:07:40;21.30;99.90
8780;DHT22;62328;51.19929245;4.42130175;2023-06-10T04:10:08;21.30;99.90
8780;DHT22;62328;51.19929245;4.42130175;2023-06-10T04:12:37;21.20;99.90
8780;DHT22;62328;51.19929245;4.42130175;2023-06-10T04:15:06;21.20;99.90
8780;DHT22;62328;51.19929245;4.42130175;2023-06-10T04:17:33;21.30;99.90
8780;DHT22;62328;51.19929245;4.42130175;2023-06-10T04:20:00;21.30;99.90
8780;DHT22;62328;51.19929245;4.42130175;2023-06-10T04:22:28;21.30;99.90
8780;DHT22;62328;51.19929245;4.42130175;2023-06-10T04:24:54;21.20;99.90
8780;DHT22;62328;51.19929245;4.42130175;2023-06-10T04:27:21;21.20;99.90
8780;DHT22;62328;51.19929245;4.42130175;2023-06-10T04:29:50;21.20;99.90
8780;DHT22;62328;51.19929245;4.42130175;2023-06-10T04:32:16;21.20;99.90
8780;DHT22;62328;51.19929245;4.42130175;2023-06-10T04:34:43;21.10;99.90
8780;DHT22;62328;51.19929245;4.42130175;2023-06-10T04:37:10;21.20;99.90
8780;DHT22;62328;51.19929245;4.42130175;2023-06-10T04:39:38;21.20;99.90
8780;DHT22;62328;51.19929245;4.42130175;2023-06-10T04:42:07;21.20;99.90
8780;DHT22;62328;51.19929245;4.42130175;2023-06-10T04:44:34;21.20;99.90
8780;DHT22;62328;51.19929245;4.42130175;2023-06-10T04:47:02;21.20;99.90
8780;DHT22;62328;51.19929245;4.42130175;2023-06-10T04:49:29;21.20;99.90
8780;DHT22;62328;51.19929245;4.42130175;2023-06-10T04:51:57;21.20;99.90
8780;DHT22;62328;51.19929245;4.42130175;2023-06-10T04:54:25;21.30;99.90
8780;DHT22;62328;51.19929245;4.42130175;2023-06-10T04:56:52;21.20;99.90
8780;DHT22;62328;51.19929245;4.42130175;2023-06-10T04:59:20;21.30;99.90
8780;DHT22;62328;51.19929245;4.42130175;2023-06-10T05:01:46;21.20;99.90
8780;DHT22;62328;51.19929245;4.42130175;2023-06-10T05:04:15;21.20;99.90
8780;DHT22;62328;51.19929245;4.42130175;2023-06-10T05:06:42;21.30;99.90
8780;DHT22;62328;51.19929245;4.42130175;2023-06-10T05:09:09;21.30;99.90
8780;DHT22;62328;51.19929245;4.42130175;2023-06-10T05:11:37;21.20;99.90
8780;DHT22;62328;51.19929245;4.42130175;2023-06-10T05:14:11;21.30;99.90
8780;DHT22;62328;51.19929245;4.42130175;2023-06-10T05:16:40;21.30;99.90
8780;DHT22;62328;51.19929245;4.42130175;2023-06-10T05:19:07;21.30;99.90
8780;DHT22;62328;51.19929245;4.42130175;2023-06-10T05:21:35;21.30;99.90
8780;DHT22;62328;51.19929245;4.42130175;2023-06-10T05:24:02;21.30;99.90
8780;DHT22;62328;51.19929245;4.42130175;2023-06-10T05:26:30;21.30;99.90
8780;DHT22;62328;51.19929245;4.42130175;2023-06-10T05:28:58;21.30;99.90
8780;DHT22;62328;51.19929245;4.42130175;2023-06-10T05:31:25;21.30;99.90
8780;DHT22;62328;51.19929245;4.42130175;2023-06-10T05:33:52;21.40;99.90
8780;DHT22;62328;51.19929245;4.42130175;2023-06-10T05:36:19;21.40;99.90
8780;DHT22;62328;51.19929245;4.42130175;2023-06-10T05:38:48;21.40;99.90
8780;DHT22;62328;51.19929245;4.42130175;2023-06-10T05:41:15;21.40;99.90
8780;DHT22;62328;51.19929245;4.42130175;2023-06-10T05:43:43;21.40;99.90
8780;DHT22;62328;51.19929245;4.42130175;2023-06-10T05:46:12;21.50;99.90
8780;DHT22;62328;51.19929245;4.42130175;2023-06-10T05:48:39;21.50;99.90
8780;DHT22;62328;51.19929245;4.42130175;2023-06-10T05:51:06;21.50;99.90
8780;DHT22;62328;51.19929245;4.42130175;2023-06-10T05:53:33;21.60;99.90
8780;DHT22;62328;51.19929245;4.42130175;2023-06-10T05:56:01;21.60;99.90
8780;DHT22;62328;51.19929245;4.42130175;2023-06-10T05:58:29;21.60;99.90
8780;DHT22;62328;51.19929245;4.42130175;2023-06-10T06:00:56;21.60;99.90
8780;DHT22;62328;51.19929245;4.42130175;2023-06-10T06:03:23;21.70;99.90
8780;DHT22;62328;51.19929245;4.42130175;2023-06-10T06:05:50;21.70;99.90
8780;DHT22;62328;51.19929245;4.42130175;2023-06-10T06:08:16;21.80;99.90
8780;DHT22;62328;51.19929245;4.42130175;2023-06-10T06:10:45;21.80;99.90
8780;DHT22;62328;51.19929245;4.42130175;2023-06-10T06:13:14;21.80;99.90
8780;DHT22;62328;51.19929245;4.42130175;2023-06-10T06:15:41;21.80;99.90
8780;DHT22;62328;51.19929245;4.42130175;2023-06-10T06:18:08;21.80;99.90
8780;DHT22;62328;51.19929245;4.42130175;2023-06-10T06:20:35;21.90;99.90
8780;DHT22;62328;51.19929245;4.42130175;2023-06-10T06:23:02;21.90;99.90
8780;DHT22;62328;51.19929245;4.42130175;2023-06-10T06:25:29;22.00;99.90
8780;DHT22;62328;51.19929245;4.42130175;2023-06-10T06:27:56;22.00;99.90
8780;DHT22;62328;51.19929245;4.42130175;2023-06-10T06:30:24;21.80;99.90
8780;DHT22;62328;51.19929245;4.42130175;2023-06-10T06:32:51;21.70;99.90
8780;DHT22;62328;51.19929245;4.42130175;2023-06-10T06:35:18;21.70;99.90
8780;DHT22;62328;51.19929245;4.42130175;2023-06-10T06:37:45;21.70;99.90
8780;DHT22;62328;51.19929245;4.42130175;2023-06-10T06:40:12;21.70;99.90
8780;DHT22;62328;51.19929245;4.42130175;2023-06-10T06:42:40;21.80;99.90
8780;DHT22;62328;51.19929245;4.42130175;2023-06-10T06:45:08;21.80;99.90
8780;DHT22;62328;51.19929245;4.42130175;2023-06-10T06:47:36;21.80;99.90
8780;DHT22;62328;51.19929245;4.42130175;2023-06-10T06:50:04;21.80;99.90
8780;DHT22;62328;51.19929245;4.42130175;2023-06-10T06:52:31;21.90;99.90
8780;DHT22;62328;51.19929245;4.42130175;2023-06-10T06:54:58;21.90;99.90
8780;DHT22;62328;51.19929245;4.42130175;2023-06-10T06:57:24;22.00;99.90
8780;DHT22;62328;51.19929245;4.42130175;2023-06-10T06:59:51;22.10;99.90
8780;DHT22;62328;51.19929245;4.42130175;2023-06-10T07:02:19;22.20;99.90
8780;DHT22;62328;51.19929245;4.42130175;2023-06-10T07:04:49;22.30;99.90
8780;DHT22;62328;51.19929245;4.42130175;2023-06-10T07:07:16;22.30;99.90
8780;DHT22;62328;51.19929245;4.42130175;2023-06-10T07:09:43;22.50;99.90
8780;DHT22;62328;51.19929245;4.42130175;2023-06-10T07:12:10;22.50;99.90
8780;DHT22;62328;51.19929245;4.42130175;2023-06-10T07:14:37;22.60;99.90
8780;DHT22;62328;51.19929245;4.42130175;2023-06-10T07:17:04;22.60;99.90
8780;DHT22;62328;51.19929245;4.42130175;2023-06-10T07:19:31;22.70;99.90
8780;DHT22;62328;51.19929245;4.42130175;2023-06-10T07:22:05;22.70;99.90
8780;DHT22;62328;51.19929245;4.42130175;2023-06-10T07:24:32;22.80;99.90
8780;DHT22;62328;51.19929245;4.42130175;2023-06-10T07:26:59;22.80;99.90
8780;DHT22;62328;51.19929245;4.42130175;2023-06-10T07:29:26;22.90;99.90
8780;DHT22;62328;51.19929245;4.42130175;2023-06-10T07:31:53;22.90;99.90
8780;DHT22;62328;51.19929245;4.42130175;2023-06-10T07:34:20;23.00;99.90
8780;DHT22;62328;51.19929245;4.42130175;2023-06-10T07:36:47;23.10;99.90
8780;DHT22;62328;51.19929245;4.42130175;2023-06-10T07:39:15;23.10;99.90
8780;DHT22;62328;51.19929245;4.42130175;2023-06-10T07:41:42;23.20;99.90
8780;DHT22;62328;51.19929245;4.42130175;2023-06-10T07:44:09;23.30;99.90
8780;DHT22;62328;51.19929245;4.42130175;2023-06-10T07:46:35;23.40;99.90
8780;DHT22;62328;51.19929245;4.42130175;2023-06-10T07:49:02;23.40;99.90
8780;DHT22;62328;51.19929245;4.42130175;2023-06-10T07:51:29;23.50;99.90
8780;DHT22;62328;51.19929245;4.42130175;2023-06-10T07:53:56;23.60;99.90
8780;DHT22;62328;51.19929245;4.42130175;2023-06-10T07:56:24;23.70;99.90
8780;DHT22;62328;51.19929245;4.42130175;2023-06-10T07:58:52;23.70;99.90
8780;DHT22;62328;51.19929245;4.42130175;2023-06-10T08:01:18;23.80;99.90
8780;DHT22;62328;51.19929245;4.42130175;2023-06-10T08:03:45;23.80;99.90
8780;DHT22;62328;51.19929245;4.42130175;2023-06-10T08:06:12;23.90;99.90
8780;DHT22;62328;51.19929245;4.42130175;2023-06-10T08:08:39;23.90;99.90
8780;DHT22;62328;51.19929245;4.42130175;2023-06-10T08:11:08;23.90;99.90
8780;DHT22;62328;51.19929245;4.42130175;2023-06-10T08:13:36;24.00;99.90
8780;DHT22;62328;51.19929245;4.42130175;2023-06-10T08:16:07;24.10;99.90
8780;DHT22;62328;51.19929245;4.42130175;2023-06-10T08:18:34;24.20;99.90
8780;DHT22;62328;51.19929245;4.42130175;2023-06-10T08:21:01;24.30;99.90
8780;DHT22;62328;51.19929245;4.42130175;2023-06-10T08:23:28;24.40;99.90
8780;DHT22;62328;51.19929245;4.42130175;2023-06-10T08:25:55;24.60;99.90
8780;DHT22;62328;51.19929245;4.42130175;2023-06-10T08:28:21;24.70;99.90
8780;DHT22;62328;51.19929245;4.42130175;2023-06-10T08:30:50;24.80;99.90
8780;DHT22;62328;51.19929245;4.42130175;2023-06-10T08:33:16;24.80;99.90
8780;DHT22;62328;51.19929245;4.42130175;2023-06-10T08:35:43;24.90;99.90
8780;DHT22;62328;51.19929245;4.42130175;2023-06-10T08:38:10;24.90;99.90
8780;DHT22;62328;51.19929245;4.42130175;2023-06-10T08:40:37;24.90;99.90
8780;DHT22;62328;51.19929245;4.42130175;2023-06-10T08:43:06;25.00;99.90
8780;DHT22;62328;51.19929245;4.42130175;2023-06-10T08:45:35;25.00;99.90
8780;DHT22;62328;51.19929245;4.42130175;2023-06-10T08:48:04;25.10;99.90
8780;DHT22;62328;51.19929245;4.42130175;2023-06-10T08:50:34;25.10;99.90
8780;DHT22;62328;51.19929245;4.42130175;2023-06-10T08:53:05;25.20;99.90
8780;DHT22;62328;51.19929245;4.42130175;2023-06-10T08:55:33;25.30;99.90
8780;DHT22;62328;51.19929245;4.42130175;2023-06-10T08:58:01;25.50;99.90
8780;DHT22;62328;51.19929245;4.42130175;2023-06-10T09:00:29;25.60;99.90
8780;DHT22;62328;51.19929245;4.42130175;2023-06-10T09:02:57;25.70;99.90
8780;DHT22;62328;51.19929245;4.42130175;2023-06-10T09:05:27;25.80;99.90
8780;DHT22;62328;51.19929245;4.42130175;2023-06-10T09:07:57;25.80;99.90
8780;DHT22;62328;51.19929245;4.42130175;2023-06-10T09:10:25;25.90;99.90
8780;DHT22;62328;51.19929245;4.42130175;2023-06-10T09:12:52;26.00;99.90
8780;DHT22;62328;51.19929245;4.42130175;2023-06-10T09:15:19;26.10;99.90
8780;DHT22;62328;51.19929245;4.42130175;2023-06-10T09:17:46;26.20;99.90
8780;DHT22;62328;51.19929245;4.42130175;2023-06-10T09:20:13;26.30;99.90
8780;DHT22;62328;51.19929245;4.42130175;2023-06-10T09:22:43;26.30;99.90
8780;DHT22;62328;51.19929245;4.42130175;2023-06-10T09:25:11;26.40;99.90
8780;DHT22;62328;51.19929245;4.42130175;2023-06-10T09:27:46;26.50;99.90
8780;DHT22;62328;51.19929245;4.42130175;2023-06-10T09:30:26;26.50;99.90
8780;DHT22;62328;51.19929245;4.42130175;2023-06-10T09:32:54;26.60;99.90
8780;DHT22;62328;51.19929245;4.42130175;2023-06-10T09:35:24;26.80;99.90
8780;DHT22;62328;51.19929245;4.42130175;2023-06-10T09:37:54;26.90;99.90
8780;DHT22;62328;51.19929245;4.42130175;2023-06-10T09:40:21;27.00;99.90
8780;DHT22;62328;51.19929245;4.42130175;2023-06-10T09:42:53;27.00;99.90
8780;DHT22;62328;51.19929245;4.42130175;2023-06-10T09:45:21;27.10;99.90
8780;DHT22;62328;51.19929245;4.42130175;2023-06-10T09:47:52;27.20;99.90
8780;DHT22;62328;51.19929245;4.42130175;2023-06-10T09:50:19;27.20;99.90
8780;DHT22;62328;51.19929245;4.42130175;2023-06-10T09:52:47;27.20;99.90
8780;DHT22;62328;51.19929245;4.42130175;2023-06-10T09:55:16;27.30;99.90
8780;DHT22;62328;51.19929245;4.42130175;2023-06-10T09:57:43;27.40;99.90
8780;DHT22;62328;51.19929245;4.42130175;2023-06-10T10:00:14;27.30;99.90
8780;DHT22;62328;51.19929245;4.42130175;2023-06-10T10:02:46;27.30;99.90
8780;DHT22;62328;51.19929245;4.42130175;2023-06-10T10:05:13;27.30;99.90
8780;DHT22;62328;51.19929245;4.42130175;2023-06-10T10:07:41;27.30;99.90
8780;DHT22;62328;51.19929245;4.42130175;2023-06-10T10:10:09;27.30;99.90
8780;DHT22;62328;51.19929245;4.42130175;2023-06-10T10:12:38;27.40;99.90
8780;DHT22;62328;51.19929245;4.42130175;2023-06-10T10:15:06;27.40;99.90
8780;DHT22;62328;51.19929245;4.42130175;2023-06-10T10:17:34;27.50;99.90
8780;DHT22;62328;51.19929245;4.42130175;2023-06-10T10:20:05;27.50;99.90
8780;DHT22;62328;51.19929245;4.42130175;2023-06-10T10:22:37;27.50;99.90
8780;DHT22;62328;51.19929245;4.42130175;2023-06-10T10:25:10;27.50;99.90
8780;DHT22;62328;51.19929245;4.42130175;2023-06-10T10:27:43;27.50;99.90
8780;DHT22;62328;51.19929245;4.42130175;2023-06-10T10:30:11;27.50;99.90
8780;DHT22;62328;51.19929245;4.42130175;2023-06-10T10:32:46;27.50;99.90
8780;DHT22;62328;51.19929245;4.42130175;2023-06-10T10:35:18;27.60;99.90
8780;DHT22;62328;51.19929245;4.42130175;2023-06-10T10:37:49;27.60;99.90
8780;DHT22;62328;51.19929245;4.42130175;2023-06-10T10:40:16;27.70;99.90
8780;DHT22;62328;51.19929245;4.42130175;2023-06-10T10:42:45;27.60;99.90
8780;DHT22;62328;51.19929245;4.42130175;2023-06-10T10:45:12;27.60;99.90
8780;DHT22;62328;51.19929245;4.42130175;2023-06-10T10:47:40;27.60;99.90
8780;DHT22;62328;51.19929245;4.42130175;2023-06-10T10:50:15;27.70;99.90
8780;DHT22;62328;51.19929245;4.42130175;2023-06-10T10:52:53;27.70;99.90
8780;DHT22;62328;51.19929245;4.42130175;2023-06-10T10:55:22;27.80;99.90
8780;DHT22;62328;51.19929245;4.42130175;2023-06-10T10:57:59;27.80;99.90
8780;DHT22;62328;51.19929245;4.42130175;2023-06-10T11:00:30;27.90;99.90
8780;DHT22;62328;51.19929245;4.42130175;2023-06-10T11:02:58;28.20;99.90
8780;DHT22;62328;51.19929245;4.42130175;2023-06-10T11:05:36;28.40;99.90
8780;DHT22;62328;51.19929245;4.42130175;2023-06-10T11:08:04;28.50;99.90
8780;DHT22;62328;51.19929245;4.42130175;2023-06-10T11:10:32;28.60;99.90
8780;DHT22;62328;51.19929245;4.42130175;2023-06-10T11:13:06;28.50;99.90
8780;DHT22;62328;51.19929245;4.42130175;2023-06-10T11:15:33;28.60;99.90
8780;DHT22;62328;51.19929245;4.42130175;2023-06-10T11:18:12;28.60;99.90
8780;DHT22;62328;51.19929245;4.42130175;2023-06-10T11:20:44;28.70;99.90
8780;DHT22;62328;51.19929245;4.42130175;2023-06-10T11:23:32;28.70;99.90
8780;DHT22;62328;51.19929245;4.42130175;2023-06-10T11:26:31;28.80;99.90
8780;DHT22;62328;51.19929245;4.42130175;2023-06-10T11:29:06;28.90;99.90
8780;DHT22;62328;51.19929245;4.42130175;2023-06-10T11:31:43;29.00;99.90
8780;DHT22;62328;51.19929245;4.42130175;2023-06-10T11:34:10;29.00;99.90
8780;DHT22;62328;51.19929245;4.42130175;2023-06-10T11:36:38;29.00;99.90
8780;DHT22;62328;51.19929245;4.42130175;2023-06-10T11:39:11;29.00;99.90
8780;DHT22;62328;51.19929245;4.42130175;2023-06-10T11:41:39;29.20;99.90
8780;DHT22;62328;51.19929245;4.42130175;2023-06-10T11:44:12;29.30;99.90
8780;DHT22;62328;51.19929245;4.42130175;2023-06-10T11:46:39;29.30;99.90
8780;DHT22;62328;51.19929245;4.42130175;2023-06-10T11:49:08;29.30;99.90
8780;DHT22;62328;51.19929245;4.42130175;2023-06-10T11:51:36;29.30;99.90
8780;DHT22;62328;51.19929245;4.42130175;2023-06-10T11:54:05;29.10;99.90
8780;DHT22;62328;51.19929245;4.42130175;2023-06-10T11:56:32;29.20;99.90
8780;DHT22;62328;51.19929245;4.42130175;2023-06-10T11:59:00;29.20;99.90
8780;DHT22;62328;51.19929245;4.42130175;2023-06-10T12:01:32;29.30;99.90
8780;DHT22;62328;51.19929245;4.42130175;2023-06-10T12:04:01;29.40;99.90
8780;DHT22;62328;51.19929245;4.42130175;2023-06-10T12:06:38;29.50;99.90
8780;DHT22;62328;51.19929245;4.42130175;2023-06-10T12:09:05;29.60;99.90
8780;DHT22;62328;51.19929245;4.42130175;2023-06-10T12:11:32;29.70;99.90
8780;DHT22;62328;51.19929245;4.42130175;2023-06-10T12:14:01;29.90;99.90
8780;DHT22;62328;51.19929245;4.42130175;2023-06-10T12:16:30;29.90;99.90
8780;DHT22;62328;51.19929245;4.42130175;2023-06-10T12:19:02;29.80;99.90
8780;DHT22;62328;51.19929245;4.42130175;2023-06-10T12:21:29;29.90;99.90
8780;DHT22;62328;51.19929245;4.42130175;2023-06-10T12:24:03;30.00;99.90
8780;DHT22;62328;51.19929245;4.42130175;2023-06-10T12:26:38;30.30;99.90
8780;DHT22;62328;51.19929245;4.42130175;2023-06-10T12:29:19;30.60;99.90
8780;DHT22;62328;51.19929245;4.42130175;2023-06-10T12:32:08;30.70;99.90
8780;DHT22;62328;51.19929245;4.42130175;2023-06-10T12:34:41;31.00;99.90
8780;DHT22;62328;51.19929245;4.42130175;2023-06-10T12:37:13;31.10;99.90
8780;DHT22;62328;51.19929245;4.42130175;2023-06-10T12:39:40;31.20;99.90
8780;DHT22;62328;51.19929245;4.42130175;2023-06-10T12:42:09;31.20;99.90
8780;DHT22;62328;51.19929245;4.42130175;2023-06-10T12:44:40;31.30;99.90
8780;DHT22;62328;51.19929245;4.42130175;2023-06-10T12:47:10;31.40;99.90
8780;DHT22;62328;51.19929245;4.42130175;2023-06-10T12:49:38;31.30;99.90
8780;DHT22;62328;51.19929245;4.42130175;2023-06-10T12:52:05;31.40;99.90
8780;DHT22;62328;51.19929245;4.42130175;2023-06-10T12:54:33;31.60;99.30
8780;DHT22;62328;51.19929245;4.42130175;2023-06-10T12:57:00;31.60;98.40
8780;DHT22;62328;51.19929245;4.42130175;2023-06-10T12:59:27;31.60;99.70
8780;DHT22;62328;51.19929245;4.42130175;2023-06-10T13:01:54;31.70;99.10
8780;DHT22;62328;51.19929245;4.42130175;2023-06-10T13:04:23;31.80;99.10
8780;DHT22;62328;51.19929245;4.42130175;2023-06-10T13:06:50;31.80;97.90
8780;DHT22;62328;51.19929245;4.42130175;2023-06-10T13:09:16;31.60;98.70
8780;DHT22;62328;51.19929245;4.42130175;2023-06-10T13:11:43;31.70;97.90
8780;DHT22;62328;51.19929245;4.42130175;2023-06-10T13:14:11;31.80;98.10
8780;DHT22;62328;51.19929245;4.42130175;2023-06-10T13:16:38;31.90;96.50
8780;DHT22;62328;51.19929245;4.42130175;2023-06-10T13:19:05;32.00;98.60
8780;DHT22;62328;51.19929245;4.42130175;2023-06-10T13:21:34;32.20;99.40
8780;DHT22;62328;51.19929245;4.42130175;2023-06-10T13:24:01;32.30;99.10
8780;DHT22;62328;51.19929245;4.42130175;2023-06-10T13:26:28;32.40;98.70
8780;DHT22;62328;51.19929245;4.42130175;2023-06-10T13:28:54;32.10;98.20
8780;DHT22;62328;51.19929245;4.42130175;2023-06-10T13:31:21;32.00;96.40
8780;DHT22;62328;51.19929245;4.42130175;2023-06-10T13:33:48;32.20;96.40
8780;DHT22;62328;51.19929245;4.42130175;2023-06-10T13:36:15;32.30;98.30
8780;DHT22;62328;51.19929245;4.42130175;2023-06-10T13:38:44;32.10;99.10
8780;DHT22;62328;51.19929245;4.42130175;2023-06-10T13:41:11;31.90;99.60